ilmateenistus.ee keskkonnaagentuur.ee
EETN Tallinna lennuväli
FTEO31 EETN 091700
TAF EETN 091700Z 0918/1018 18012KT 9999 SCT040 TEMPO 0920/1001 5000
    RA BKN020 TEMPO 0923/1004 19016G26KT PROB40 TEMPO 1003/1008 4000 SHRA
    SCT020CB=

METAR EETN 092220Z 15009KT 9999 -RA BKN049 07/04 Q1014=
Tallinna lennuväli
EEKA Kärdla lennuväli
METAR EEKA 092220Z NIL=
Kärdla lennuväli
EEKE Kuressaare lennuväli
METAR EEKE 092220Z AUTO 16011KT 9999NDV NSC 08/05 Q1012=
Kuressaare lennuväli
EEPU Pärnu lennuväli
METAR EEPU 092220Z NIL=
Pärnu lennuväli
EETU Tartu lennuväli
METAR EETU 092220Z AUTO 17006KT 9999 -DZ BKN055/// 09/02 Q1018 REUP=
Tartu lennuväli
EEEI Ämari lennuväli
METAR EEEI 092150Z AUTO 15011KT 120V180 9999 -RA OVC050/// 08/05 Q1014=
Ämari lennuväli